Time;durP1;ratioP1;P1;durP2;ratioP2;P2;SDS_P1;SDS_P2;PMS_P1;PMS_P2;Temp;Humidity;BMP_temperature;BMP_pressure;BME280_temperature;BME280_humidity;BME280_pressure;Samples;Min_cycle;Max_cycle;Signal;HPM_P1;HPM_P2
2020/12/11 00:01:27;;;;;;;8.60;4.88;;;;;;;3.39;81.55;100742.03;5031925;28;20073;-74
2020/12/11 00:03:53;;;;;;;7.28;4.90;;;;;;;3.38;81.15;100726.91;5051847;28;20024;-74
2020/12/11 00:06:20;;;;;;;6.88;4.70;;;;;;;3.36;81.31;100736.28;5049451;28;20061;-74
2020/12/11 00:08:45;;;;;;;6.90;4.55;;;;;;;3.36;80.94;100737.09;5051492;28;20028;-73
2020/12/11 00:11:11;;;;;;;6.57;4.63;;;;;;;3.33;81.18;100738.38;5045402;28;20028;-74
2020/12/11 00:13:36;;;;;;;8.07;4.38;;;;;;;3.33;81.07;100734.88;5049955;28;20914;-74
2020/12/11 00:16:01;;;;;;;8.25;4.82;;;;;;;3.34;81.29;100728.41;5051583;28;20051;-74
2020/12/11 00:18:27;;;;;;;6.82;3.83;;;;;;;3.33;81.05;100726.78;5059407;28;20025;-74
2020/12/11 00:20:52;;;;;;;7.40;4.57;;;;;;;3.31;81.17;100724.28;5049957;28;20398;-74
2020/12/11 00:23:18;;;;;;;7.47;3.95;;;;;;;3.30;81.15;100721.81;5037620;28;20208;-74
2020/12/11 00:25:43;;;;;;;7.10;4.25;;;;;;;3.30;80.91;100719.97;5050633;28;20087;-74
2020/12/11 00:28:09;;;;;;;6.10;4.07;;;;;;;3.29;81.19;100704.84;5051009;28;20024;-74
2020/12/11 00:30:34;;;;;;;5.50;3.72;;;;;;;3.30;81.03;100711.88;5051803;28;20025;-74
2020/12/11 00:32:59;;;;;;;6.95;4.03;;;;;;;3.30;81.27;100705.66;5046507;28;20532;-75
2020/12/11 00:35:25;;;;;;;5.82;4.07;;;;;;;3.30;81.07;100702.97;5048913;28;20045;-75
2020/12/11 00:37:50;;;;;;;5.22;3.78;;;;;;;3.29;81.10;100696.75;5051076;28;20036;-75
2020/12/11 00:40:16;;;;;;;6.40;3.90;;;;;;;3.29;81.11;100690.53;5048268;28;20025;-75
2020/12/11 00:42:41;;;;;;;6.63;4.05;;;;;;;3.28;81.48;100687.03;5050993;28;20024;-75
2020/12/11 00:45:06;;;;;;;5.63;4.03;;;;;;;3.27;81.26;100687.25;5058399;28;20031;-75
2020/12/11 00:47:32;;;;;;;5.60;4.10;;;;;;;3.27;81.65;100676.47;5054289;28;20021;-75
2020/12/11 00:49:57;;;;;;;5.80;4.40;;;;;;;3.25;81.21;100682.09;5048391;28;20025;-75
2020/12/11 00:52:22;;;;;;;7.53;4.20;;;;;;;3.26;81.39;100672.16;5050606;28;20033;-75
2020/12/11 00:54:48;;;;;;;6.35;3.83;;;;;;;3.23;81.55;100662.66;5048903;28;20481;-75
2020/12/11 00:57:13;;;;;;;6.80;4.25;;;;;;;3.23;81.59;100657.25;5052126;28;20087;-75
2020/12/11 00:59:39;;;;;;;6.50;4.15;;;;;;;3.23;81.35;100651.06;5047573;28;20391;-75
2020/12/11 01:02:04;;;;;;;7.22;3.83;;;;;;;3.23;81.69;100659.94;5046468;28;20125;-73
2020/12/11 01:04:30;;;;;;;5.57;3.83;;;;;;;3.24;81.52;100655.38;5048291;28;20025;-73
2020/12/11 01:06:55;;;;;;;5.85;4.13;;;;;;;3.24;81.60;100650.81;5050594;28;20024;-73
2020/12/11 01:09:21;;;;;;;5.60;3.75;;;;;;;3.22;80.99;100644.00;5047727;28;20037;-74
2020/12/11 01:11:46;;;;;;;7.00;4.07;;;;;;;3.23;81.40;100640.28;5049001;28;20390;-74
2020/12/11 01:14:11;;;;;;;6.88;4.20;;;;;;;3.21;81.75;100647.75;5049065;28;20032;-74
2020/12/11 01:16:37;;;;;;;9.00;3.80;;;;;;;3.19;81.35;100645.31;5049492;28;20028;-74
2020/12/11 01:19:02;;;;;;;5.68;4.03;;;;;;;3.19;81.77;100644.47;5048637;28;20593;-74
2020/12/11 01:21:28;;;;;;;6.47;3.90;;;;;;;3.19;81.34;100644.47;5050947;28;20032;-74
2020/12/11 01:23:53;;;;;;;7.03;4.25;;;;;;;3.20;81.78;100643.44;5048346;28;20029;-74
2020/12/11 01:26:19;;;;;;;7.05;4.35;;;;;;;3.19;81.53;100645.31;5052746;28;20079;-74
2020/12/11 01:28:44;;;;;;;9.43;3.85;;;;;;;3.19;81.50;100641.78;5044665;28;20095;-74
2020/12/11 01:31:09;;;;;;;5.88;4.30;;;;;;;3.18;81.69;100632.06;5033085;28;20025;-74
2020/12/11 01:33:35;;;;;;;5.68;4.00;;;;;;;3.17;81.63;100638.50;5049734;28;20025;-74
2020/12/11 01:36:00;;;;;;;5.07;4.07;;;;;;;3.17;81.44;100641.19;5049572;28;20049;-73
2020/12/11 01:38:26;;;;;;;7.10;4.30;;;;;;;3.19;81.61;100644.47;5045346;28;20036;-74
2020/12/11 01:40:51;;;;;;;6.88;3.83;;;;;;;3.17;81.36;100635.81;5049978;28;20025;-74
2020/12/11 01:43:18;;;;;;;7.38;5.05;;;;;;;3.14;81.30;100636.25;5049943;28;20037;-74
2020/12/11 01:45:44;;;;;;;8.07;3.88;;;;;;;3.13;81.49;100635.44;5029820;28;20025;-73
2020/12/11 01:48:09;;;;;;;5.60;3.88;;;;;;;3.13;81.49;100635.44;5046367;28;20417;-73
2020/12/11 01:50:35;;;;;;;6.30;4.13;;;;;;;3.13;81.54;100634.59;5048037;28;20032;-74
2020/12/11 01:53:00;;;;;;;6.70;4.32;;;;;;;3.11;81.73;100627.59;5050425;28;20079;-74
2020/12/11 01:55:25;;;;;;;6.32;4.47;;;;;;;3.14;81.58;100628.16;5049558;28;20025;-73
2020/12/11 01:58:01;;;;;;;6.20;4.18;;;;;;;3.14;82.01;100626.31;5049491;28;20021;-74
2020/12/11 02:00:26;;;;;;;7.10;4.32;;;;;;;3.16;81.91;100629.56;5047298;28;20035;-74
2020/12/11 02:03:04;;;;;;;6.10;4.35;;;;;;;3.14;81.68;100622.78;5055077;28;20021;-73
2020/12/11 02:05:30;;;;;;;6.88;4.32;;;;;;;3.11;81.77;100614.13;5034570;28;20389;-74
2020/12/11 02:07:56;;;;;;;5.07;3.95;;;;;;;3.12;81.71;100612.25;5043400;28;20013;-74
2020/12/11 02:10:22;;;;;;;5.65;4.00;;;;;;;3.11;81.93;100611.44;5050692;28;20024;-74
2020/12/11 02:12:47;;;;;;;6.10;3.88;;;;;;;3.10;81.37;100600.88;5054264;28;20048;-74
2020/12/11 02:15:12;;;;;;;7.97;4.15;;;;;;;3.11;81.55;100608.75;5053227;28;20029;-73
2020/12/11 02:17:38;;;;;;;6.28;4.55;;;;;;;3.10;81.51;100604.38;5053528;28;20025;-74
2020/12/11 02:20:03;;;;;;;5.78;4.03;;;;;;;3.08;81.27;100601.13;5051799;28;20032;-74
2020/12/11 02:22:28;;;;;;;6.72;4.05;;;;;;;3.11;81.72;100600.66;5037024;28;20028;-73
2020/12/11 02:24:54;;;;;;;6.43;4.50;;;;;;;3.11;81.60;100597.97;5054140;28;20082;-74
2020/12/11 02:27:19;;;;;;;7.10;4.30;;;;;;;3.12;81.88;100593.41;5053174;28;20029;-74
2020/12/11 02:29:45;;;;;;;5.63;3.80;;;;;;;3.11;81.91;100600.66;5051518;28;20025;-73
2020/12/11 02:32:14;;;;;;;5.40;3.72;;;;;;;3.13;81.81;100596.91;5054820;28;20025;-74
2020/12/11 02:34:39;;;;;;;7.50;4.25;;;;;;;3.11;81.60;100595.28;5041490;28;20512;-73
2020/12/11 02:37:05;;;;;;;5.80;4.00;;;;;;;3.10;81.71;100598.19;5043920;28;20046;-73
2020/12/11 02:39:30;;;;;;;4.85;3.42;;;;;;;3.11;81.17;100595.28;5049351;28;20021;-74
2020/12/11 02:41:56;;;;;;;7.15;4.20;;;;;;;3.13;81.07;100596.91;5045622;28;20375;-73
2020/12/11 02:44:21;;;;;;;5.82;4.03;;;;;;;3.11;81.86;100595.28;5084653;28;20021;-72
2020/12/11 02:46:47;;;;;;;6.00;4.10;;;;;;;3.13;81.93;100597.72;5053586;28;20017;-73
2020/12/11 02:49:12;;;;;;;6.20;4.15;;;;;;;3.12;81.79;100596.09;5050848;28;20331;-73
2020/12/11 02:51:37;;;;;;;6.72;4.32;;;;;;;3.09;81.76;100591.16;5041310;28;20494;-73
2020/12/11 02:54:03;;;;;;;5.25;3.60;;;;;;;3.08;81.24;100584.13;5052110;28;20049;-74
2020/12/11 02:56:28;;;;;;;4.25;3.17;;;;;;;3.10;81.51;100577.44;5041585;28;20024;-74
2020/12/11 02:58:54;;;;;;;5.85;3.28;;;;;;;3.09;81.36;100581.19;5051042;28;20482;-74
2020/12/11 03:01:19;;;;;;;7.38;4.15;;;;;;;3.09;81.46;100573.13;5052879;28;20098;-73
2020/12/11 03:03:44;;;;;;;7.05;3.67;;;;;;;3.08;81.14;100574.19;5052770;28;20021;-74
2020/12/11 03:06:10;;;;;;;6.05;3.85;;;;;;;3.07;81.43;100577.09;5051718;28;20402;-74
2020/12/11 03:08:35;;;;;;;5.22;3.53;;;;;;;3.08;81.59;100573.34;5054232;28;20040;-73
2020/12/11 03:11:00;;;;;;;4.60;3.28;;;;;;;3.08;81.64;100579.56;5043690;28;20033;-74
2020/12/11 03:13:26;;;;;;;6.32;4.18;;;;;;;3.08;81.00;100574.19;5046085;28;20081;-74
2020/12/11 03:15:51;;;;;;;5.70;3.80;;;;;;;3.08;81.19;100567.94;5046575;28;20025;-74
2020/12/11 03:18:17;;;;;;;7.82;3.92;;;;;;;3.08;81.21;100573.34;5052335;28;20021;-74
2020/12/11 03:20:42;;;;;;;4.47;3.65;;;;;;;3.08;81.21;100567.94;5042469;28;20029;-73
2020/12/11 03:23:07;;;;;;;6.43;4.00;;;;;;;3.07;80.99;100561.75;5042091;28;20536;-73
2020/12/11 03:25:33;;;;;;;5.07;3.58;;;;;;;3.08;81.14;100557.19;5051068;28;20027;-73
2020/12/11 03:27:58;;;;;;;7.72;3.90;;;;;;;3.07;81.59;100556.38;5051912;28;20471;-73
2020/12/11 03:30:24;;;;;;;6.22;3.45;;;;;;;3.06;81.28;100565.50;5042860;28;20025;-74
2020/12/11 03:32:49;;;;;;;5.38;3.45;;;;;;;3.06;81.18;100559.31;5051741;28;20397;-74
2020/12/11 03:35:14;;;;;;;6.88;3.60;;;;;;;3.05;81.26;100554.94;5051738;28;20035;-74
2020/12/11 03:37:40;;;;;;;5.50;3.30;;;;;;;3.06;81.25;100553.91;5035876;28;20484;-74
2020/12/11 03:40:05;;;;;;;5.50;3.22;;;;;;;3.07;80.77;100550.97;5041508;28;20028;-74
2020/12/11 03:42:31;;;;;;;4.65;3.42;;;;;;;3.05;81.25;100553.06;5047464;28;20060;-74
2020/12/11 03:44:56;;;;;;;5.25;3.60;;;;;;;3.06;81.04;100549.34;5050790;28;20112;-74
2020/12/11 03:47:21;;;;;;;4.15;2.95;;;;;;;3.06;81.36;100548.53;5053522;28;20383;-75
2020/12/11 03:49:47;;;;;;;5.68;3.40;;;;;;;3.05;81.14;100536.91;5051738;28;20037;-74
2020/12/11 03:52:12;;;;;;;5.38;3.22;;;;;;;3.05;80.68;100541.47;5035365;28;20032;-73
2020/12/11 03:54:37;;;;;;;5.20;3.72;;;;;;;3.03;81.08;100532.84;5050886;28;20023;-74
2020/12/11 03:57:03;;;;;;;6.05;3.25;;;;;;;3.03;81.06;100533.66;5053090;28;20032;-74
2020/12/11 03:59:28;;;;;;;5.13;3.30;;;;;;;3.03;80.92;100533.66;5043016;28;20035;-73
2020/12/11 04:01:54;;;;;;;4.82;3.50;;;;;;;3.03;81.08;100528.25;5052528;28;20040;-74
2020/12/11 04:04:19;;;;;;;5.13;3.25;;;;;;;3.02;80.84;100532.00;5050957;28;20340;-74
2020/12/11 04:06:44;;;;;;;5.13;3.25;;;;;;;3.01;80.92;100529.53;5051133;28;20017;-74
2020/12/11 04:09:10;;;;;;;5.43;3.72;;;;;;;3.01;81.19;100527.66;5043130;28;20025;-74
2020/12/11 04:11:35;;;;;;;5.88;3.55;;;;;;;3.00;80.87;100528.72;5051129;28;20343;-74
2020/12/11 04:14:02;;;;;;;6.00;3.30;;;;;;;3.01;81.11;100524.97;5052507;28;20074;-74
2020/12/11 04:16:28;;;;;;;5.68;3.65;;;;;;;3.01;81.14;100514.19;5050684;28;20025;-74
2020/12/11 04:18:53;;;;;;;5.68;3.20;;;;;;;2.99;80.61;100518.19;5052193;28;20036;-73
2020/12/11 04:21:19;;;;;;;5.25;3.30;;;;;;;2.99;80.32;100523.56;5050770;28;20078;-73
2020/12/11 04:23:44;;;;;;;4.90;2.90;;;;;;;2.99;80.78;100520.88;5050396;28;20033;-74
2020/12/11 04:26:10;;;;;;;6.05;3.55;;;;;;;2.97;80.41;100523.78;5050041;28;20056;-73
2020/12/11 04:28:35;;;;;;;5.15;3.30;;;;;;;2.98;81.04;100517.34;5040000;28;20075;-73
2020/12/11 04:31:01;;;;;;;6.70;3.20;;;;;;;2.98;80.34;100517.34;5049970;28;20463;-74
2020/12/11 04:33:26;;;;;;;4.25;3.03;;;;;;;3.00;80.60;100528.72;5048949;28;20025;-74
2020/12/11 04:35:52;;;;;;;3.92;2.70;;;;;;;3.00;80.76;100520.66;5048062;28;20029;-74
2020/12/11 04:38:17;;;;;;;4.65;3.17;;;;;;;2.99;80.95;100524.38;5051269;28;20037;-73
2020/12/11 04:40:42;;;;;;;5.75;3.30;;;;;;;3.01;80.59;100524.97;5050070;28;20083;-73
2020/12/11 04:43:09;;;;;;;6.53;3.42;;;;;;;3.02;80.98;100521.22;5050918;28;20028;-73
2020/12/11 04:45:34;;;;;;;4.72;2.75;;;;;;;3.01;80.30;100516.91;5050288;28;20021;-74
2020/12/11 04:47:59;;;;;;;5.57;3.88;;;;;;;3.01;80.76;100513.38;5048113;28;20478;-73
2020/12/11 04:50:25;;;;;;;4.53;2.80;;;;;;;3.00;80.40;100507.19;5033248;28;20033;-74
2020/12/11 04:52:50;;;;;;;5.25;3.17;;;;;;;2.99;80.20;100508.22;5042559;28;20399;-74
2020/12/11 04:55:17;;;;;;;5.07;2.90;;;;;;;2.98;80.20;100503.91;5051374;28;20029;-74
2020/12/11 04:57:49;;;;;;;4.85;2.80;;;;;;;2.98;80.34;100503.91;5046076;28;20095;-74
2020/12/11 05:00:16;;;;;;;5.00;3.58;;;;;;;2.98;80.16;100503.91;5049196;28;20032;-74
2020/12/11 05:02:42;;;;;;;6.50;3.60;;;;;;;2.98;80.30;100503.91;5051961;28;20036;-74
2020/12/11 05:05:08;;;;;;;6.47;2.97;;;;;;;2.98;80.23;100503.09;5048820;28;20482;-73
2020/12/11 05:07:34;;;;;;;5.18;3.80;;;;;;;2.97;80.41;100510.31;5049396;28;20025;-75
2020/12/11 05:09:59;;;;;;;5.28;3.08;;;;;;;2.96;80.60;100506.00;5063555;28;20032;-74
2020/12/11 05:12:24;;;;;;;4.85;3.22;;;;;;;2.95;80.32;100498.16;5050512;28;20079;-74
2020/12/11 05:15:00;;;;;;;5.07;3.17;;;;;;;2.94;80.79;100500.00;5049761;28;20056;-74
2020/12/11 05:17:30;;;;;;;5.13;3.40;;;;;;;2.95;80.67;100498.97;5039225;28;20064;-74
2020/12/11 05:19:55;;;;;;;6.00;3.08;;;;;;;2.93;80.84;100495.69;5033514;28;20040;-74
2020/12/11 05:22:22;;;;;;;4.78;2.92;;;;;;;2.93;80.24;100500.25;5051383;28;20021;-74
2020/12/11 05:24:49;;;;;;;4.28;2.78;;;;;;;2.95;80.68;100500.84;5033460;28;20381;-74
2020/12/11 05:27:43;;;;;;;4.55;2.92;;;;;;;2.95;80.09;100504.34;5048497;28;20158;-74
2020/12/11 05:30:14;;;;;;;4.25;2.78;;;;;;;2.96;80.19;100499.78;5049828;28;20079;-74
2020/12/11 05:32:40;;;;;;;5.90;3.72;;;;;;;2.96;80.25;100499.78;5051516;28;20104;-75
2020/12/11 05:35:31;;;;;;;4.43;2.67;;;;;;;2.95;80.27;100498.16;5050753;28;20483;-74
2020/12/11 05:38:04;;;;;;;5.30;3.28;;;;;;;2.96;80.42;100499.78;5054566;28;20083;-74
2020/12/11 05:40:35;;;;;;;5.13;3.42;;;;;;;2.96;80.47;100491.72;5053534;28;20028;-74
2020/12/11 05:43:20;;;;;;;3.75;2.88;;;;;;;2.97;80.11;100491.47;5054535;28;20037;-75
2020/12/11 05:45:58;;;;;;;3.63;2.88;;;;;;;2.97;80.78;100478.00;5047509;28;20025;-74
2020/12/11 05:48:25;;;;;;;5.03;2.95;;;;;;;2.98;80.80;100484.22;5053104;28;20036;-75
2020/12/11 05:50:51;;;;;;;5.38;3.22;;;;;;;2.96;80.48;100484.44;5053889;28;20025;-75
2020/12/11 05:53:17;;;;;;;4.45;3.17;;;;;;;2.96;80.63;100479.06;5055434;28;20032;-75
2020/12/11 05:55:42;;;;;;;5.57;2.95;;;;;;;2.96;80.28;100476.38;5033116;28;20034;-74
2020/12/11 05:58:10;;;;;;;5.47;3.28;;;;;;;2.93;80.76;100466.06;5056291;28;20123;-74
2020/12/11 06:00:35;;;;;;;5.15;3.22;;;;;;;2.92;80.37;100463.59;5050831;28;20040;-74
2020/12/11 06:03:00;;;;;;;5.35;3.20;;;;;;;2.92;80.18;100469.81;5054306;28;20408;-74
2020/12/11 06:05:26;;;;;;;4.82;3.00;;;;;;;2.91;80.51;100465.47;5052512;28;20028;-74
2020/12/11 06:07:51;;;;;;;6.43;3.35;;;;;;;2.92;80.91;100455.50;5042966;28;20026;-75
2020/12/11 06:10:21;;;;;;;4.72;3.10;;;;;;;2.93;80.40;100467.94;5051442;28;20029;-74
2020/12/11 06:12:46;;;;;;;4.65;3.20;;;;;;;2.94;80.73;100462.31;5053915;28;20032;-74
2020/12/11 06:15:21;;;;;;;4.72;2.88;;;;;;;2.92;80.67;100456.34;5047622;28;20037;-75
2020/12/11 06:18:06;;;;;;;5.15;3.00;;;;;;;2.91;80.80;100454.69;5054936;28;20017;-74
2020/12/11 06:20:32;;;;;;;4.30;2.78;;;;;;;2.92;80.52;100456.34;5052824;28;20048;-75
2020/12/11 06:23:22;;;;;;;5.38;3.00;;;;;;;2.92;80.63;100456.34;5053618;28;20013;-75
2020/12/11 06:25:54;;;;;;;5.80;3.00;;;;;;;2.93;80.21;100459.88;5053438;28;20025;-75
2020/12/11 06:28:35;;;;;;;5.60;3.78;;;;;;;2.93;80.24;100458.00;5042498;28;20022;-75
2020/12/11 06:31:00;;;;;;;5.18;2.90;;;;;;;2.94;80.40;100459.63;5047937;28;20520;-75
2020/12/11 06:33:30;;;;;;;5.45;3.35;;;;;;;2.95;80.74;100466.66;5054784;28;20036;-75
2020/12/11 06:35:56;;;;;;;5.95;3.22;;;;;;;2.96;80.63;100470.16;5050490;28;20446;-75
2020/12/11 06:38:39;;;;;;;6.32;3.33;;;;;;;2.94;80.63;100469.56;5053320;28;20021;-75
2020/12/11 06:41:05;;;;;;;5.63;3.60;;;;;;;2.96;80.46;100475.56;5049116;28;20021;-75
2020/12/11 06:43:43;;;;;;;6.45;4.15;;;;;;;2.95;80.98;100472.03;5052961;28;20029;-75
2020/12/11 06:46:16;;;;;;;5.97;3.83;;;;;;;2.95;80.77;100466.66;5048777;28;20032;-75
2020/12/11 06:49:03;;;;;;;5.18;3.53;;;;;;;2.94;80.53;100465.00;5051126;28;20036;-75
2020/12/11 06:51:28;;;;;;;5.65;3.53;;;;;;;2.96;80.35;100467.47;5044062;28;20044;-75
2020/12/11 06:53:54;;;;;;;5.57;3.65;;;;;;;2.95;80.50;100466.66;5051967;28;20025;-75
2020/12/11 06:56:37;;;;;;;5.97;3.65;;;;;;;2.94;80.61;100465.00;5052166;28;20047;-74
2020/12/11 06:59:24;;;;;;;11.60;4.20;;;;;;;2.93;80.56;100460.69;5051944;28;20373;-74
2020/12/11 07:01:56;;;;;;;5.22;3.28;;;;;;;2.94;80.23;100461.50;5049445;28;20039;-74
2020/12/11 07:04:22;;;;;;;6.25;3.97;;;;;;;2.94;80.12;100465.00;5030577;28;20033;-75
2020/12/11 07:06:51;;;;;;;5.32;3.42;;;;;;;2.96;80.18;100472.88;5082660;28;20469;-74
2020/12/11 07:09:17;;;;;;;7.68;4.03;;;;;;;2.98;80.21;100465.38;5060867;28;20029;-75
2020/12/11 07:11:43;;;;;;;6.35;3.90;;;;;;;2.97;80.04;100461.84;5051168;28;20452;-74
2020/12/11 07:14:08;;;;;;;6.93;3.85;;;;;;;2.99;80.47;100462.44;5051866;28;20039;-75
2020/12/11 07:16:40;;;;;;;6.75;4.15;;;;;;;3.00;80.54;100457.88;5048975;28;20115;-74
2020/12/11 07:19:05;;;;;;;7.03;4.07;;;;;;;2.97;80.41;100459.16;5078655;28;20108;-74
2020/12/11 07:21:34;;;;;;;6.85;3.53;;;;;;;2.98;80.40;100462.69;5052081;28;20029;-74
2020/12/11 07:24:00;;;;;;;7.25;3.67;;;;;;;2.97;80.35;100466.41;5051213;28;20036;-75
2020/12/11 07:26:26;;;;;;;8.23;4.45;;;;;;;2.97;80.38;100475.31;5044775;28;20024;-74
2020/12/11 07:29:21;;;;;;;8.52;4.40;;;;;;;2.96;80.10;100468.28;5052484;28;20032;-74
2020/12/11 07:31:46;;;;;;;6.22;4.43;;;;;;;2.96;80.52;100460.22;5042796;28;20035;-74
2020/12/11 07:34:28;;;;;;;7.22;4.20;;;;;;;2.97;80.03;100461.03;5049425;28;20467;-74
2020/12/11 07:36:55;;;;;;;7.10;4.10;;;;;;;2.97;80.12;100464.53;5037707;28;20033;-74
2020/12/11 07:39:21;;;;;;;6.78;4.22;;;;;;;2.97;79.92;100474.50;5039520;28;20048;-75
2020/12/11 07:41:47;;;;;;;6.22;3.75;;;;;;;2.97;80.74;100480.69;5049196;28;20025;-74
2020/12/11 07:44:25;;;;;;;7.07;4.25;;;;;;;2.97;80.64;100480.69;5050294;28;20106;-74
2020/12/11 07:46:51;;;;;;;8.07;4.28;;;;;;;2.97;80.30;100480.69;5046254;28;20036;-75
2020/12/11 07:49:17;;;;;;;8.60;4.28;;;;;;;2.99;79.91;100478.59;5048889;28;20485;-74
2020/12/11 07:51:46;;;;;;;7.97;4.78;;;;;;;2.99;80.54;100473.22;5049777;28;20024;-74
2020/12/11 07:54:12;;;;;;;8.15;5.25;;;;;;;3.00;80.64;100474.88;5048550;28;20052;-74
2020/12/11 07:56:37;;;;;;;8.40;4.38;;;;;;;2.99;80.16;100481.28;5062807;28;20118;-75
2020/12/11 07:59:12;;;;;;;8.13;4.72;;;;;;;2.97;80.00;100480.69;5060123;28;20090;-73
2020/12/11 08:01:38;;;;;;;8.23;5.07;;;;;;;2.96;80.31;100476.38;5048563;28;20039;-74
2020/12/11 08:04:03;;;;;;;7.38;4.90;;;;;;;2.96;80.59;100484.44;5032476;28;20037;-72
2020/12/11 08:06:29;;;;;;;8.25;5.55;;;;;;;2.95;80.03;100471.22;5051112;28;20493;-72
2020/12/11 08:08:56;;;;;;;9.05;4.68;;;;;;;2.94;80.14;100470.38;5045981;28;20029;-72
2020/12/11 08:11:27;;;;;;;8.82;4.88;;;;;;;2.96;80.78;100468.28;5047116;28;20039;-72
2020/12/11 08:14:02;;;;;;;8.77;5.13;;;;;;;2.99;80.82;100472.41;5050820;28;20078;-72
2020/12/11 08:16:29;;;;;;;9.25;5.65;;;;;;;3.01;80.52;100467.59;5045559;28;20032;-74
2020/12/11 08:18:55;;;;;;;7.55;4.95;;;;;;;3.01;80.21;100473.00;5051080;28;20120;-73
2020/12/11 08:21:32;;;;;;;8.73;5.10;;;;;;;3.01;80.40;100475.69;5025953;28;20056;-73
2020/12/11 08:23:58;;;;;;;9.63;5.43;;;;;;;3.00;80.40;100466.78;5048907;28;20067;-73
2020/12/11 08:26:26;;;;;;;8.25;5.13;;;;;;;2.99;80.50;100475.91;5048892;28;20482;-73
2020/12/11 08:29:03;;;;;;;9.60;5.40;;;;;;;2.98;81.08;100470.75;5045070;28;20398;-73
2020/12/11 08:31:28;;;;;;;7.97;5.15;;;;;;;2.97;80.69;100469.91;5078420;28;20068;-73
2020/12/11 08:34:01;;;;;;;10.38;5.60;;;;;;;2.96;80.74;100472.88;5044868;28;20032;-74
2020/12/11 08:36:27;;;;;;;9.23;5.55;;;;;;;2.96;81.13;100470.97;5047859;28;20056;-72
2020/12/11 08:39:07;;;;;;;12.27;6.55;;;;;;;2.96;80.69;100465.59;5048081;28;20025;-75
2020/12/11 08:41:35;;;;;;;10.40;6.10;;;;;;;2.98;81.45;100468.88;5046498;28;20029;-76
2020/12/11 08:44:03;;;;;;;10.30;6.30;;;;;;;3.03;81.41;100482.47;5048207;28;20116;-76
2020/12/11 08:46:59;;;;;;;11.50;6.75;;;;;;;3.04;81.06;100473.34;5051973;28;20111;-75
2020/12/11 08:49:45;;;;;;;8.90;5.68;;;;;;;3.05;81.15;100477.66;5049959;28;20021;-75
2020/12/11 08:52:10;;;;;;;10.85;7.38;;;;;;;3.06;81.79;100468.56;5048176;28;20425;-75
2020/12/11 08:54:36;;;;;;;14.32;7.40;;;;;;;3.07;81.14;100470.19;5048544;28;20020;-75
2020/12/11 08:57:01;;;;;;;9.00;5.85;;;;;;;3.07;81.52;100474.75;5034954;28;20025;-74
2020/12/11 08:59:27;;;;;;;14.02;7.45;;;;;;;3.07;81.61;100475.56;5048642;28;20021;-74
2020/12/11 09:01:52;;;;;;;12.20;6.43;;;;;;;3.09;81.58;100478.84;5051479;28;20081;-74
2020/12/11 09:04:17;;;;;;;8.93;5.78;;;;;;;3.13;81.64;100470.31;5046981;28;20025;-74
2020/12/11 09:06:44;;;;;;;8.25;5.40;;;;;;;3.14;81.77;100480.03;5048399;28;20039;-74
2020/12/11 09:09:09;;;;;;;12.40;6.63;;;;;;;3.14;81.60;100474.63;5047407;28;20044;-75
2020/12/11 09:11:35;;;;;;;10.38;6.43;;;;;;;3.13;80.96;100479.19;5061416;28;20438;-74
2020/12/11 09:14:00;;;;;;;12.35;6.93;;;;;;;3.15;81.67;100477.09;5051578;28;20036;-74
2020/12/11 09:16:26;;;;;;;12.40;6.45;;;;;;;3.16;81.70;100483.31;5049242;28;20413;-74
2020/12/11 09:18:51;;;;;;;10.77;6.68;;;;;;;3.18;81.58;100475.81;5051239;28;20470;-74
2020/12/11 09:21:16;;;;;;;10.40;5.78;;;;;;;3.18;81.59;100481.22;5049811;28;20363;-74
2020/12/11 09:23:42;;;;;;;11.07;6.25;;;;;;;3.21;82.07;100486.13;5051789;28;20078;-74
2020/12/11 09:26:07;;;;;;;8.68;6.00;;;;;;;3.24;81.71;100474.88;5050741;28;20036;-74
2020/12/11 09:28:32;;;;;;;10.10;5.85;;;;;;;3.24;81.66;100474.88;5049514;28;20386;-74
2020/12/11 09:30:58;;;;;;;10.13;5.85;;;;;;;3.25;81.63;100476.53;5049319;28;20036;-74
2020/12/11 09:33:26;;;;;;;10.05;5.75;;;;;;;3.24;81.76;100469.50;5049973;28;20033;-75
2020/12/11 09:35:52;;;;;;;8.98;6.28;;;;;;;3.25;82.12;100471.16;5048665;28;20049;-74
2020/12/11 09:38:17;;;;;;;8.38;5.97;;;;;;;3.25;81.95;100465.78;5050658;28;20033;-74
2020/12/11 09:48:36;;;;;;;10.15;5.90;;;;;;;3.36;81.69;100462.25;5045511;28;20021;-75
2020/12/11 09:56:21;;;;;;;9.43;5.72;;;;;;;3.40;82.08;100462.59;5046720;28;20525;-74
2020/12/11 09:58:47;;;;;;;9.20;5.65;;;;;;;3.40;81.90;100458.03;5050455;28;20059;-74
2020/12/11 10:01:12;;;;;;;9.98;5.65;;;;;;;3.41;81.82;100459.69;5044942;28;20390;-74
2020/12/11 10:03:40;;;;;;;11.88;6.50;;;;;;;3.43;82.17;100449.47;5041226;28;20043;-74
2020/12/11 10:06:08;;;;;;;11.23;5.85;;;;;;;3.46;82.08;100464.34;5047703;28;20021;-74
2020/12/11 10:08:34;;;;;;;11.18;6.28;;;;;;;3.46;81.98;100459.78;5046730;28;20031;-74
2020/12/11 10:10:59;;;;;;;9.57;6.47;;;;;;;3.50;82.03;100457.44;5034716;28;20049;-75
2020/12/11 10:13:25;;;;;;;9.65;6.25;;;;;;;3.53;81.66;100457.78;5045626;28;20047;-74
2020/12/11 10:15:50;;;;;;;10.80;5.88;;;;;;;3.56;82.18;100443.03;5046994;28;20770;-74
2020/12/11 10:18:16;;;;;;;10.50;6.70;;;;;;;3.58;82.07;100442.81;5045002;28;20413;-73
2020/12/11 10:20:41;;;;;;;9.38;6.30;;;;;;;3.59;81.80;100439.84;5047968;28;20074;-74
2020/12/11 10:23:07;;;;;;;10.77;6.43;;;;;;;3.60;81.61;100435.28;5052049;28;20083;-74
2020/12/11 10:25:32;;;;;;;12.18;6.82;;;;;;;3.58;81.70;100445.50;5053409;28;20437;-74
2020/12/11 10:27:57;;;;;;;10.10;5.75;;;;;;;3.58;82.00;100445.50;5052636;28;20036;-73
2020/12/11 10:30:23;;;;;;;7.88;5.32;;;;;;;3.57;81.55;100439.25;5054248;28;20032;-72
2020/12/11 10:32:48;;;;;;;8.75;6.10;;;;;;;3.59;82.19;100433.66;5045465;28;20029;-73
2020/12/11 10:35:14;;;;;;;9.80;5.85;;;;;;;3.62;82.20;100423.22;5051990;28;20028;-73
2020/12/11 10:37:39;;;;;;;7.90;5.03;;;;;;;3.65;82.37;100417.34;5049607;28;20375;-74
2020/12/11 10:40:05;;;;;;;8.60;5.57;;;;;;;3.70;81.96;100424.72;5048544;28;20087;-74
2020/12/11 10:42:31;;;;;;;10.73;5.25;;;;;;;3.73;82.14;100419.66;5052599;28;20024;-74
2020/12/11 10:44:56;;;;;;;9.05;5.15;;;;;;;3.73;81.88;100413.47;5049022;28;20025;-74
2020/12/11 10:47:22;;;;;;;7.50;4.90;;;;;;;3.73;81.97;100424.25;5052013;28;20029;-75
2020/12/11 10:49:47;;;;;;;8.50;4.57;;;;;;;3.76;81.55;100412.97;5052960;28;20028;-74
2020/12/11 10:52:14;;;;;;;9.05;5.40;;;;;;;3.79;82.04;100412.50;5053773;28;20035;-74
2020/12/11 10:54:39;;;;;;;8.73;5.35;;;;;;;3.81;81.85;100414.97;5054187;28;20049;-75
2020/12/11 10:57:05;;;;;;;9.70;5.00;;;;;;;3.81;81.91;100414.97;5051191;28;20023;-75
2020/12/11 10:59:30;;;;;;;7.60;5.53;;;;;;;3.80;81.61;100413.34;5053005;28;20482;-75
2020/12/11 11:01:55;;;;;;;10.02;5.20;;;;;;;3.80;81.98;100416.84;5051880;28;20025;-75
2020/12/11 11:04:21;;;;;;;7.68;5.57;;;;;;;3.80;81.85;100414.16;5054399;28;20025;-75
2020/12/11 11:06:54;;;;;;;8.48;5.10;;;;;;;3.80;82.01;100406.06;5053351;28;20025;-75
2020/12/11 11:12:36;;;;;;;6.38;4.63;;;;;;;3.80;81.71;100408.78;5053594;28;20024;-75
2020/12/11 11:18:13;;;;;;;8.68;5.25;;;;;;;3.84;81.53;100409.09;5053076;28;20091;-75
2020/12/11 11:20:59;;;;;;;10.77;5.40;;;;;;;3.84;81.44;100414.50;5051530;28;20044;-75
2020/12/11 11:26:07;;;;;;;9.80;5.68;;;;;;;3.90;81.48;100398.19;5054002;28;20075;-75
2020/12/11 11:28:32;;;;;;;8.05;5.22;;;;;;;3.93;81.38;100397.72;5058772;28;20029;-76
2020/12/11 11:30:57;;;;;;;7.68;5.45;;;;;;;3.94;81.59;100398.53;5052675;28;20021;-76
2020/12/11 11:33:23;;;;;;;9.15;5.68;;;;;;;3.91;81.33;100397.13;5052565;28;20106;-75
2020/12/11 11:35:49;;;;;;;10.68;6.68;;;;;;;3.90;81.55;100387.41;5085718;28;20044;-75
2020/12/11 11:38:16;;;;;;;8.63;5.75;;;;;;;3.92;81.65;100396.06;5052686;28;20021;-76
2020/12/11 11:40:42;;;;;;;7.25;5.25;;;;;;;3.91;81.37;100390.91;5085761;28;20028;-75
2020/12/11 11:43:07;;;;;;;9.98;5.53;;;;;;;3.88;81.42;100389.53;5059193;28;20028;-75
2020/12/11 11:45:37;;;;;;;7.95;5.35;;;;;;;3.90;81.72;100398.19;5052154;28;20020;-75
2020/12/11 11:48:06;;;;;;;6.78;4.97;;;;;;;3.92;81.48;100390.66;5051566;28;20262;-75
2020/12/11 11:53:32;;;;;;;8.10;5.00;;;;;;;3.90;81.05;100386.56;5037355;28;20397;-75
2020/12/11 11:55:58;;;;;;;8.93;6.03;;;;;;;3.89;81.31;100382.25;5044100;28;20093;-75
2020/12/11 11:58:23;;;;;;;9.55;6.05;;;;;;;3.87;81.16;100374.38;5051105;28;20021;-75